createdAt,value
2018-04-13T00:00:57.021Z,8.87
2018-04-13T00:01:57.017Z,8.82
2018-04-13T00:02:57.219Z,8.70
2018-04-13T00:03:57.021Z,8.64
2018-04-13T00:04:57.010Z,8.52
2018-04-13T00:05:57.018Z,8.60
2018-04-13T00:06:57.205Z,8.56
2018-04-13T00:07:56.995Z,8.58
2018-04-13T00:08:57.197Z,8.56
2018-04-13T00:09:57.194Z,8.56
2018-04-13T00:10:57.006Z,8.55
2018-04-13T00:11:56.999Z,8.48
2018-04-13T00:12:56.991Z,8.48
2018-04-13T00:13:57.177Z,8.51
2018-04-13T00:14:57.186Z,8.51
2018-04-13T00:15:56.982Z,8.55
2018-04-13T00:16:56.965Z,8.56
2018-04-13T00:17:57.177Z,8.60
2018-04-13T00:18:56.957Z,8.63
2018-04-13T00:19:56.956Z,8.73
2018-04-13T00:20:56.954Z,8.81
2018-04-13T00:21:56.951Z,8.89
2018-04-13T00:22:57.146Z,8.89
2018-04-13T00:23:56.954Z,8.92
2018-04-13T00:24:56.938Z,9.00
2018-04-13T00:25:56.936Z,9.02
2018-04-13T00:26:56.929Z,8.95
2018-04-13T00:27:56.926Z,8.84
2018-04-13T00:28:56.922Z,8.76
2018-04-13T00:29:56.919Z,8.67
2018-04-13T00:30:56.927Z,8.63
2018-04-13T00:31:57.135Z,8.66
2018-04-13T00:32:56.919Z,8.55
2018-04-13T00:33:56.906Z,8.58
2018-04-13T00:34:56.901Z,8.55
2018-04-13T00:35:57.113Z,8.61
2018-04-13T00:36:56.895Z,8.58
2018-04-13T00:37:56.890Z,8.66
2018-04-13T00:38:56.888Z,8.71
2018-04-13T00:39:57.087Z,8.78
2018-04-13T00:40:57.083Z,8.74
2018-04-13T00:41:57.083Z,8.76
2018-04-13T00:42:56.873Z,8.74
2018-04-13T00:43:56.869Z,8.71
2018-04-13T00:44:56.867Z,8.76
2018-04-13T00:45:56.860Z,8.73
2018-04-13T00:46:56.857Z,8.78
2018-04-13T00:47:56.855Z,8.73
2018-04-13T00:48:57.056Z,8.76
2018-04-13T00:49:56.862Z,8.79
2018-04-13T00:50:57.049Z,8.79
2018-04-13T00:51:56.851Z,8.78
2018-04-13T00:52:56.839Z,8.81
2018-04-13T00:53:57.039Z,8.73
2018-04-13T00:54:56.828Z,8.74
2018-04-13T00:55:57.029Z,8.78
2018-04-13T00:56:56.832Z,8.73
2018-04-13T00:57:56.819Z,8.53
2018-04-13T00:58:56.815Z,8.48
2018-04-13T00:59:56.813Z,8.24
2018-04-13T01:00:56.809Z,8.23
2018-04-13T01:01:57.033Z,8.19
2018-04-13T01:02:56.800Z,8.12
2018-04-13T01:03:57.000Z,8.05
2018-04-13T01:04:56.794Z,8.03
2018-04-13T01:05:56.791Z,8.01
2018-04-13T01:06:56.785Z,7.93
2018-04-13T01:07:56.783Z,8.06
2018-04-13T01:08:56.780Z,8.09
2018-04-13T01:09:56.777Z,8.19
2018-04-13T01:10:56.770Z,8.27
2018-04-13T01:11:56.766Z,8.37
2018-04-13T01:12:56.977Z,8.33
2018-04-13T01:13:56.772Z,8.34
2018-04-13T01:14:56.753Z,8.36
2018-04-13T01:15:56.763Z,8.26
2018-04-13T01:16:56.759Z,8.26
2018-04-13T01:17:56.948Z,8.23
2018-04-13T01:18:56.739Z,8.30
2018-04-13T01:19:56.748Z,8.16
2018-04-13T01:20:56.733Z,8.09
2018-04-13T01:21:56.726Z,7.98
2018-04-13T01:22:56.746Z,7.93
2018-04-13T01:23:56.720Z,7.91
2018-04-13T01:24:56.715Z,7.97
2018-04-13T01:25:56.714Z,7.90
2018-04-13T01:26:56.708Z,7.80
2018-04-13T01:27:56.705Z,7.83
2018-04-13T01:28:56.699Z,7.79
2018-04-13T01:29:56.900Z,7.82
2018-04-13T01:30:56.701Z,7.76
2018-04-13T01:31:56.692Z,7.60
2018-04-13T01:32:56.906Z,7.70
2018-04-13T01:33:56.681Z,7.58
2018-04-13T01:34:56.685Z,7.60
2018-04-13T01:35:56.676Z,7.70
2018-04-13T01:36:56.670Z,7.66
2018-04-13T01:37:56.868Z,7.69
2018-04-13T01:38:56.666Z,7.63
2018-04-13T01:39:56.656Z,7.61
2018-04-13T01:40:56.855Z,7.57
2018-04-13T01:41:56.852Z,7.70
2018-04-13T01:42:56.847Z,7.61
2018-04-13T01:43:56.650Z,7.57
2018-04-13T01:44:56.634Z,7.79
2018-04-13T01:45:56.631Z,7.79
2018-04-13T01:46:56.681Z,7.83
2018-04-13T01:47:56.625Z,7.80
2018-04-13T01:48:56.822Z,7.87
2018-04-13T01:49:56.616Z,7.94
2018-04-13T01:50:56.617Z,8.00
2018-04-13T01:51:56.607Z,8.24
2018-04-13T01:52:56.614Z,8.26
2018-04-13T01:53:56.805Z,8.46
2018-04-13T01:54:56.611Z,8.49
2018-04-13T01:55:56.590Z,8.46
2018-04-13T01:56:56.799Z,8.56
2018-04-13T01:57:56.584Z,8.53
2018-04-13T01:58:56.577Z,8.56
2018-04-13T01:59:56.780Z,8.55
2018-04-13T02:00:56.571Z,8.52
2018-04-13T02:01:56.791Z,8.55
2018-04-13T02:02:56.563Z,8.52
2018-04-13T02:03:56.562Z,8.44
2018-04-13T02:04:56.626Z,8.48
2018-04-13T02:05:56.564Z,8.45
2018-04-13T02:06:56.557Z,8.49
2018-04-13T02:07:56.545Z,8.55
2018-04-13T02:08:56.542Z,8.51
2018-04-13T02:09:56.548Z,8.42
2018-04-13T02:10:56.535Z,8.34
2018-04-13T02:11:56.540Z,8.20
2018-04-13T02:12:56.536Z,8.03
2018-04-13T02:13:56.522Z,8.05
2018-04-13T02:14:56.519Z,7.97
2018-04-13T02:15:56.716Z,7.85
2018-04-13T02:16:56.508Z,7.77
2018-04-13T02:17:56.519Z,7.67
2018-04-13T02:18:56.714Z,7.67
2018-04-13T02:19:56.497Z,7.79
2018-04-13T02:20:56.725Z,7.66
2018-04-13T02:21:56.491Z,7.66
2018-04-13T02:22:56.498Z,7.67
2018-04-13T02:23:56.481Z,7.67
2018-04-13T02:24:56.477Z,7.69
2018-04-13T02:25:56.477Z,7.72
2018-04-13T02:26:56.481Z,7.60
2018-04-13T02:27:56.668Z,7.63
2018-04-13T02:28:56.473Z,7.63
2018-04-13T02:29:56.660Z,7.48
2018-04-13T02:30:56.467Z,7.56
2018-04-13T02:31:56.447Z,7.48
2018-04-13T02:32:56.449Z,7.50
2018-04-13T02:33:56.455Z,7.45
2018-04-13T02:34:56.449Z,7.35
2018-04-13T02:35:56.434Z,7.25
2018-04-13T02:36:56.443Z,7.28
2018-04-13T02:37:56.435Z,7.42
2018-04-13T02:38:56.419Z,7.45
2018-04-13T02:39:56.415Z,7.35
2018-04-13T02:40:56.424Z,7.50
2018-04-13T02:41:56.409Z,7.50
2018-04-13T02:42:56.404Z,7.36
2018-04-13T02:43:56.604Z,7.29
2018-04-13T02:44:56.397Z,7.36
2018-04-13T02:45:56.391Z,7.39
2018-04-13T02:46:56.398Z,7.48
2018-04-13T02:47:56.384Z,7.38
2018-04-13T02:48:56.378Z,7.43
2018-04-13T02:49:56.386Z,7.57
2018-04-13T02:50:56.583Z,7.53
2018-04-13T02:51:56.378Z,7.32
2018-04-13T02:52:56.577Z,7.33
2018-04-13T02:53:56.359Z,7.35
2018-04-13T02:54:56.364Z,7.39
2018-04-13T02:55:56.359Z,7.29
2018-04-13T02:56:56.345Z,7.28
2018-04-13T02:57:56.341Z,7.24
2018-04-13T02:58:56.542Z,7.25
2018-04-13T02:59:56.349Z,7.21
2018-04-13T03:00:56.341Z,7.06
2018-04-13T03:01:56.335Z,7.10
2018-04-13T03:02:56.521Z,7.05
2018-04-13T03:03:56.327Z,7.06
2018-04-13T03:04:56.310Z,6.93
2018-04-13T03:05:56.332Z,6.84
2018-04-13T03:06:56.300Z,6.85
2018-04-13T03:07:56.311Z,6.82
2018-04-13T03:08:56.293Z,6.84
2018-04-13T03:09:56.505Z,6.82
2018-04-13T03:10:56.282Z,6.84
2018-04-13T03:11:56.279Z,6.81
2018-04-13T03:12:56.284Z,6.84
2018-04-13T03:13:56.282Z,6.88
2018-04-13T03:14:56.468Z,6.88
2018-04-13T03:15:56.261Z,6.82
2018-04-13T03:16:56.256Z,6.84
2018-04-13T03:17:56.254Z,6.95
2018-04-13T03:18:56.302Z,6.96
2018-04-13T03:19:56.458Z,6.92
2018-04-13T03:20:56.239Z,6.89
2018-04-13T03:21:56.235Z,6.87
2018-04-13T03:22:56.231Z,6.82
2018-04-13T03:23:56.226Z,6.92
2018-04-13T03:24:56.229Z,6.89
2018-04-13T03:25:56.219Z,6.84
2018-04-13T03:26:56.211Z,6.79
2018-04-13T03:27:56.411Z,6.84
2018-04-13T03:28:56.216Z,6.84
2018-04-13T03:29:56.197Z,6.77
2018-04-13T03:30:56.201Z,6.75
2018-04-13T03:31:56.189Z,6.77
2018-04-13T03:32:56.413Z,6.92
2018-04-13T03:33:56.180Z,6.82
2018-04-13T03:34:56.378Z,6.79
2018-04-13T03:35:56.187Z,6.74
2018-04-13T03:36:56.174Z,6.75
2018-04-13T03:37:56.160Z,6.69
2018-04-13T03:38:56.157Z,6.64
2018-04-13T03:39:56.356Z,6.57
2018-04-13T03:40:56.145Z,6.59
2018-04-13T03:41:56.141Z,6.56
2018-04-13T03:42:56.147Z,6.49
2018-04-13T03:43:56.147Z,6.36
2018-04-13T03:44:56.127Z,6.38
2018-04-13T03:45:56.339Z,6.35
2018-04-13T03:46:56.119Z,6.41
2018-04-13T03:47:56.320Z,6.36
2018-04-13T03:48:56.112Z,6.36
2018-04-13T03:49:56.107Z,6.39
2018-04-13T03:50:56.100Z,6.26
2018-04-13T03:51:56.097Z,6.30
2018-04-13T03:52:56.306Z,6.24
2018-04-13T03:53:56.086Z,6.24
2018-04-13T03:54:56.296Z,6.16
2018-04-13T03:55:56.082Z,6.19
2018-04-13T03:56:56.075Z,6.22
2018-04-13T03:57:56.274Z,6.30
2018-04-13T03:58:56.065Z,6.24
2018-04-13T03:59:56.057Z,6.19
2018-04-13T04:00:56.053Z,6.20
2018-04-13T04:01:56.050Z,6.26
2018-04-13T04:02:56.044Z,6.28
2018-04-13T04:03:56.243Z,6.35
2018-04-13T04:04:56.238Z,6.36
2018-04-13T04:05:56.041Z,6.38
2018-04-13T04:06:56.032Z,6.35
2018-04-13T04:07:56.025Z,6.42
2018-04-13T04:08:56.218Z,6.38
2018-04-13T04:09:56.012Z,6.45
2018-04-13T04:10:56.040Z,6.44
2018-04-13T04:11:56.003Z,6.59
2018-04-13T04:12:55.997Z,6.63
2018-04-13T04:13:56.195Z,6.74
2018-04-13T04:14:55.994Z,6.74
2018-04-13T04:15:55.982Z,6.79
2018-04-13T04:16:56.190Z,6.84
2018-04-13T04:17:55.982Z,6.88
2018-04-13T04:18:55.987Z,6.72
2018-04-13T04:19:55.992Z,6.63
2018-04-13T04:20:55.968Z,6.44
2018-04-13T04:21:56.173Z,6.36
2018-04-13T04:22:55.952Z,6.38
2018-04-13T04:23:55.948Z,6.49
2018-04-13T04:24:55.940Z,6.62
2018-04-13T04:25:56.150Z,6.66
2018-04-13T04:26:55.942Z,6.69
2018-04-13T04:27:55.923Z,6.75
2018-04-13T04:28:55.945Z,6.78
2018-04-13T04:29:55.914Z,6.74
2018-04-13T04:30:55.909Z,6.82
2018-04-13T04:31:55.905Z,6.77
2018-04-13T04:32:55.901Z,6.79
2018-04-13T04:33:55.896Z,6.78
2018-04-13T04:34:55.889Z,6.79
2018-04-13T04:35:55.885Z,6.92
2018-04-13T04:36:55.907Z,6.78
2018-04-13T04:37:55.885Z,6.77
2018-04-13T04:38:56.092Z,6.77
2018-04-13T04:39:56.079Z,6.79
2018-04-13T04:40:55.867Z,6.77
2018-04-13T04:41:55.876Z,6.60
2018-04-13T04:42:55.855Z,6.52
2018-04-13T04:43:55.848Z,6.66
2018-04-13T04:44:55.854Z,6.69
2018-04-13T04:45:56.042Z,6.74
2018-04-13T04:46:55.841Z,6.77
2018-04-13T04:47:55.829Z,6.84
2018-04-13T04:48:55.823Z,6.95
2018-04-13T04:49:56.069Z,6.89
2018-04-13T04:50:56.017Z,7.06
2018-04-13T04:51:55.819Z,7.14
2018-04-13T04:52:55.806Z,7.21
2018-04-13T04:53:55.803Z,7.03
2018-04-13T04:54:55.799Z,7.11
2018-04-13T04:55:55.803Z,7.10
2018-04-13T04:56:55.789Z,6.99
2018-04-13T04:57:55.786Z,6.99
2018-04-13T04:58:55.979Z,6.99
2018-04-13T04:59:55.987Z,6.99
2018-04-13T05:00:55.769Z,6.92
2018-04-13T05:01:55.971Z,6.88
2018-04-13T05:02:55.969Z,6.92
2018-04-13T05:03:55.754Z,6.89
2018-04-13T05:04:55.755Z,6.88
2018-04-13T05:05:55.783Z,6.97
2018-04-13T05:06:55.751Z,7.02
2018-04-13T05:07:55.735Z,6.89
2018-04-13T05:08:55.734Z,7.03
2018-04-13T05:09:55.738Z,7.03
2018-04-13T05:10:55.734Z,7.02
2018-04-13T05:11:55.752Z,7.05
2018-04-13T05:12:55.716Z,7.07
2018-04-13T05:13:55.912Z,7.06
2018-04-13T05:14:55.916Z,7.18
2018-04-13T05:15:55.711Z,7.20
2018-04-13T05:16:55.708Z,7.24
2018-04-13T05:17:55.899Z,7.20
2018-04-13T05:18:55.685Z,7.21
2018-04-13T05:19:55.682Z,7.20
2018-04-13T05:20:55.893Z,7.18
2018-04-13T05:21:55.685Z,7.18
2018-04-13T05:22:55.666Z,7.17
2018-04-13T05:23:55.672Z,7.21
2018-04-13T05:24:55.660Z,7.21
2018-04-13T05:25:55.654Z,7.25
2018-04-13T05:26:55.651Z,7.35
2018-04-13T05:27:55.644Z,7.35
2018-04-13T05:28:55.645Z,7.42
2018-04-13T05:29:55.647Z,7.45
2018-04-13T05:30:55.630Z,7.53
2018-04-13T05:31:55.643Z,7.61
2018-04-13T05:32:55.620Z,7.57
2018-04-13T05:33:55.832Z,7.57
2018-04-13T05:34:55.623Z,7.69
2018-04-13T05:35:55.637Z,7.79
2018-04-13T05:36:55.614Z,7.75
2018-04-13T05:37:55.825Z,7.79
2018-04-13T05:38:55.608Z,7.87
2018-04-13T05:39:55.592Z,7.93
2018-04-13T05:40:55.790Z,7.94
2018-04-13T05:41:55.812Z,7.91
2018-04-13T05:42:55.590Z,8.03
2018-04-13T05:43:55.573Z,8.13
2018-04-13T05:44:55.584Z,8.16
2018-04-13T05:45:55.563Z,8.24
2018-04-13T05:46:55.561Z,8.27
2018-04-13T05:47:55.555Z,8.33
2018-04-13T05:48:55.552Z,8.41
2018-04-13T05:49:55.547Z,8.42
2018-04-13T05:50:55.546Z,8.51
2018-04-13T05:51:55.542Z,8.51
2018-04-13T05:52:55.550Z,8.56
2018-04-13T05:53:55.533Z,8.49
2018-04-13T05:54:55.528Z,8.58
2018-04-13T05:55:55.737Z,8.55
2018-04-13T05:56:55.519Z,8.56
2018-04-13T05:57:55.515Z,8.52
2018-04-13T05:58:55.520Z,8.58
2018-04-13T05:59:55.510Z,8.55
2018-04-13T06:00:55.505Z,8.63
2018-04-13T06:01:55.500Z,8.64
2018-04-13T06:02:55.491Z,8.71
2018-04-13T06:03:55.488Z,8.76
2018-04-13T06:04:55.687Z,8.81
2018-04-13T06:05:55.492Z,8.81
2018-04-13T06:06:55.477Z,8.85
2018-04-13T06:07:55.477Z,8.89
2018-04-13T06:08:55.477Z,8.84
2018-04-13T06:09:55.461Z,8.82
2018-04-13T06:10:55.457Z,8.87
2018-04-13T06:11:55.454Z,8.89
2018-04-13T06:12:55.452Z,8.94
2018-04-13T06:13:55.448Z,8.99
2018-04-13T06:14:55.456Z,9.02
2018-04-13T06:15:55.452Z,9.13
2018-04-13T06:16:55.437Z,9.11
2018-04-13T06:17:55.431Z,9.19
2018-04-13T06:18:55.483Z,9.19
2018-04-13T06:19:55.638Z,9.28
2018-04-13T06:20:55.423Z,9.32
2018-04-13T06:21:55.412Z,9.29
2018-04-13T06:22:55.437Z,9.36
2018-04-13T06:23:55.404Z,9.50
2018-04-13T06:24:55.400Z,9.46
2018-04-13T06:25:55.428Z,9.43
2018-04-13T06:26:55.405Z,9.55
2018-04-13T06:27:55.388Z,9.59
2018-04-13T06:28:55.384Z,9.61
2018-04-13T06:29:55.379Z,9.64
2018-04-13T06:30:55.584Z,9.65
2018-04-13T06:31:55.384Z,9.74
2018-04-13T06:32:55.572Z,9.77
2018-04-13T06:33:55.367Z,9.80
2018-04-13T06:34:55.372Z,9.84
2018-04-13T06:35:55.574Z,9.82
2018-04-13T06:36:55.354Z,9.89
2018-04-13T06:37:55.558Z,9.86
2018-04-13T06:38:55.348Z,10.05
2018-04-13T06:39:55.341Z,10.07
2018-04-13T06:40:55.338Z,10.02
2018-04-13T06:41:55.335Z,10.17
2018-04-13T06:42:55.332Z,10.07
2018-04-13T06:43:55.326Z,10.15
2018-04-13T06:44:55.333Z,10.10
2018-04-13T06:45:55.322Z,10.26
2018-04-13T06:46:55.518Z,10.26
2018-04-13T06:47:55.338Z,10.20
2018-04-13T06:48:55.330Z,10.23
2018-04-13T06:49:55.306Z,10.25
2018-04-13T06:50:55.298Z,10.37
2018-04-13T06:51:55.319Z,10.41
2018-04-13T06:52:55.293Z,10.44
2018-04-13T06:53:55.300Z,10.49
2018-04-13T06:54:55.297Z,10.46
2018-04-13T06:55:55.281Z,10.44
2018-04-13T06:56:55.496Z,10.53
2018-04-13T06:57:55.302Z,10.59
2018-04-13T06:58:55.275Z,10.49
2018-04-13T06:59:55.270Z,10.60
2018-04-13T07:00:55.470Z,10.64
2018-04-13T07:01:55.279Z,10.57
2018-04-13T07:02:55.259Z,10.76
2018-04-13T07:03:55.272Z,10.74
2018-04-13T07:04:55.253Z,10.76
2018-04-13T07:05:55.473Z,10.82
2018-04-13T07:06:55.243Z,10.76
2018-04-13T07:07:55.254Z,10.86
2018-04-13T07:08:55.248Z,10.90
2018-04-13T07:09:55.232Z,10.93
2018-04-13T07:10:55.252Z,10.97
2018-04-13T07:11:55.430Z,11.04
2018-04-13T07:12:55.234Z,11.02
2018-04-13T07:13:55.222Z,11.04
2018-04-13T07:14:55.227Z,11.12
2018-04-13T07:15:55.223Z,11.15
2018-04-13T07:16:55.225Z,11.26
2018-04-13T07:17:55.222Z,11.29
2018-04-13T07:18:55.215Z,11.36
2018-04-13T07:19:55.222Z,11.36
2018-04-13T07:20:55.404Z,11.41
2018-04-13T07:21:55.196Z,11.43
2018-04-13T07:22:55.417Z,11.45
2018-04-13T07:23:55.191Z,11.44
2018-04-13T07:24:55.450Z,11.47
2018-04-13T07:25:55.395Z,11.54
2018-04-13T07:26:55.185Z,11.57
2018-04-13T07:27:55.182Z,11.54
2018-04-13T07:28:55.377Z,11.55
2018-04-13T07:29:55.374Z,11.60
2018-04-13T07:30:55.182Z,11.68
2018-04-13T07:31:55.869Z,11.65
2018-04-13T07:32:55.365Z,11.62
2018-04-13T07:33:55.553Z,11.65
2018-04-13T07:34:55.153Z,11.68
2018-04-13T07:35:55.252Z,11.68
2018-04-13T07:36:55.145Z,11.69
2018-04-13T07:37:55.145Z,11.69
2018-04-13T07:38:55.496Z,11.69
2018-04-13T07:39:55.151Z,11.69
2018-04-13T07:40:55.134Z,11.70
2018-04-13T07:41:55.153Z,11.66
2018-04-13T07:42:55.131Z,11.72
2018-04-13T07:43:55.127Z,11.68
2018-04-13T07:44:55.135Z,11.69
2018-04-13T07:45:55.397Z,11.69
2018-04-13T07:46:55.321Z,11.69
2018-04-13T07:47:55.115Z,11.83
2018-04-13T07:48:55.111Z,11.78
2018-04-13T07:49:55.119Z,11.86
2018-04-13T07:50:55.119Z,11.87
2018-04-13T07:51:55.526Z,11.78
2018-04-13T07:52:55.122Z,11.90
2018-04-13T07:53:55.304Z,11.87
2018-04-13T07:54:55.308Z,11.90
2018-04-13T07:55:55.106Z,11.86
2018-04-13T07:56:55.092Z,11.90
2018-04-13T07:57:55.303Z,12.02
2018-04-13T07:58:55.563Z,11.86
2018-04-13T07:59:55.082Z,12.00
2018-04-13T08:00:55.078Z,12.04
2018-04-13T08:01:55.075Z,12.06
2018-04-13T08:02:55.073Z,12.09
2018-04-13T08:03:55.283Z,12.07
2018-04-13T08:04:55.068Z,12.04
2018-04-13T08:05:55.067Z,12.10
2018-04-13T08:06:55.060Z,12.12
2018-04-13T08:07:55.085Z,12.12
2018-04-13T08:08:55.258Z,12.15
2018-04-13T08:09:55.273Z,12.21
2018-04-13T08:10:55.063Z,12.20
2018-04-13T08:11:55.049Z,12.28
2018-04-13T08:12:55.260Z,12.32
2018-04-13T08:13:55.043Z,12.31
2018-04-13T08:14:55.064Z,12.40
2018-04-13T08:15:55.043Z,12.40
2018-04-13T08:16:55.240Z,12.40
2018-04-13T08:17:55.055Z,12.35
2018-04-13T08:18:55.027Z,12.45
2018-04-13T08:19:55.025Z,12.53
2018-04-13T08:20:55.023Z,12.49
2018-04-13T08:21:55.037Z,12.54
2018-04-13T08:22:55.030Z,12.53
2018-04-13T08:23:55.017Z,12.54
2018-04-13T08:24:55.028Z,12.50
2018-04-13T08:25:55.022Z,12.49
2018-04-13T08:26:55.007Z,12.58
2018-04-13T08:27:55.006Z,12.67
2018-04-13T08:28:55.220Z,12.61
2018-04-13T08:29:55.215Z,12.61
2018-04-13T08:30:54.998Z,12.64
2018-04-13T08:31:54.997Z,12.62
2018-04-13T08:32:55.020Z,12.65
2018-04-13T08:33:55.004Z,12.58
2018-04-13T08:34:55.224Z,12.67
2018-04-13T08:35:54.987Z,12.64
2018-04-13T08:36:54.987Z,12.61
2018-04-13T08:37:55.187Z,12.67
2018-04-13T08:38:55.183Z,12.67
2018-04-13T08:39:54.998Z,12.64
2018-04-13T08:40:54.977Z,12.62
2018-04-13T08:41:54.974Z,12.65
2018-04-13T08:42:54.983Z,12.83
2018-04-13T08:43:54.981Z,12.78
2018-04-13T08:44:54.968Z,12.73
2018-04-13T08:45:54.964Z,12.67
2018-04-13T08:46:54.960Z,12.72
2018-04-13T08:47:54.981Z,12.67
2018-04-13T08:48:55.331Z,12.72
2018-04-13T08:49:55.156Z,12.79
2018-04-13T08:50:54.953Z,12.82
2018-04-13T08:51:54.965Z,12.86
2018-04-13T08:52:55.011Z,12.93
2018-04-13T08:53:54.957Z,12.83
2018-04-13T08:54:54.943Z,12.83
2018-04-13T08:55:54.951Z,12.95
2018-04-13T08:56:55.198Z,12.93
2018-04-13T08:57:55.157Z,13.03
2018-04-13T08:58:54.961Z,13.00
2018-04-13T08:59:54.930Z,13.01
2018-04-13T09:00:55.161Z,12.98
2018-04-13T09:01:54.939Z,13.12
2018-04-13T09:02:54.935Z,13.15
2018-04-13T09:03:54.949Z,13.22
2018-04-13T09:04:55.123Z,13.23
2018-04-13T09:05:54.917Z,13.20
2018-04-13T09:06:54.932Z,13.33
2018-04-13T09:07:54.925Z,13.28
2018-04-13T09:08:54.923Z,13.37
2018-04-13T09:09:54.918Z,13.38
2018-04-13T09:10:54.925Z,13.33
2018-04-13T09:11:54.905Z,13.46
2018-04-13T09:12:54.928Z,13.46
2018-04-13T09:13:54.911Z,13.49
2018-04-13T09:14:54.909Z,13.54
2018-04-13T09:15:54.899Z,13.60
2018-04-13T09:16:54.894Z,13.65
2018-04-13T09:17:54.906Z,13.75
2018-04-13T09:18:55.091Z,13.78
2018-04-13T09:19:55.090Z,13.71
2018-04-13T09:20:54.895Z,13.79
2018-04-13T09:21:55.095Z,13.85
2018-04-13T09:22:54.891Z,13.79
2018-04-13T09:23:54.880Z,13.87
2018-04-13T09:24:54.876Z,13.86
2018-04-13T09:25:54.875Z,13.90
2018-04-13T09:26:55.085Z,13.90
2018-04-13T09:27:54.935Z,13.95
2018-04-13T09:28:54.895Z,14.04
2018-04-13T09:29:54.865Z,14.00
2018-04-13T09:30:55.065Z,14.03
2018-04-13T09:31:54.861Z,14.05
2018-04-13T09:32:54.864Z,14.08
2018-04-13T09:33:55.061Z,14.11
2018-04-13T09:34:54.858Z,14.18
2018-04-13T09:35:55.066Z,14.17
2018-04-13T09:36:54.851Z,14.14
2018-04-13T09:37:54.876Z,14.14
2018-04-13T09:38:54.851Z,14.18
2018-04-13T09:39:54.855Z,14.11
2018-04-13T09:40:55.044Z,14.23
2018-04-13T09:41:54.855Z,14.20
2018-04-13T09:42:54.849Z,14.33
2018-04-13T09:43:55.050Z,14.29
2018-04-13T09:44:55.049Z,14.28
2018-04-13T09:45:54.840Z,14.35
2018-04-13T09:46:54.834Z,14.30
2018-04-13T09:47:54.852Z,14.30
2018-04-13T09:48:54.831Z,14.28
2018-04-13T09:49:54.841Z,14.30
2018-04-13T09:50:54.828Z,14.32
2018-04-13T09:51:54.825Z,14.30
2018-04-13T09:52:55.048Z,14.32
2018-04-13T09:53:54.823Z,14.40
2018-04-13T09:54:54.828Z,14.37
2018-04-13T09:55:54.815Z,14.47
2018-04-13T09:56:54.828Z,14.48
2018-04-13T09:57:54.816Z,14.40
2018-04-13T09:58:55.025Z,14.29
2018-04-13T09:59:54.807Z,14.44
2018-04-13T10:00:54.820Z,14.40
2018-04-13T10:01:54.825Z,14.47
2018-04-13T10:02:54.808Z,14.32
2018-04-13T10:03:54.802Z,14.33
2018-04-13T10:04:54.801Z,14.23
2018-04-13T10:05:54.796Z,14.23
2018-04-13T10:06:54.805Z,14.20
2018-04-13T10:07:54.804Z,14.23
2018-04-13T10:08:54.791Z,14.15
2018-04-13T10:09:54.805Z,14.17
2018-04-13T10:10:54.791Z,14.15
2018-04-13T10:11:54.787Z,14.14
2018-04-13T10:12:54.786Z,14.11
2018-04-13T10:13:54.783Z,14.07
2018-04-13T10:14:54.787Z,14.05
2018-04-13T10:15:54.780Z,14.14
2018-04-13T10:16:54.981Z,14.04
2018-04-13T10:17:54.787Z,14.07
2018-04-13T10:18:54.772Z,14.11
2018-04-13T10:19:54.771Z,14.04
2018-04-13T10:20:54.780Z,14.08
2018-04-13T10:21:54.768Z,14.04
2018-04-13T10:22:54.765Z,14.07
2018-04-13T10:23:54.970Z,14.04
2018-04-13T10:24:54.785Z,14.04
2018-04-13T10:25:54.769Z,14.00
2018-04-13T10:26:54.777Z,13.99
2018-04-13T10:27:54.766Z,14.04
2018-04-13T10:28:54.957Z,14.05
2018-04-13T10:29:54.756Z,14.00
2018-04-13T10:30:54.750Z,14.04
2018-04-13T10:31:54.746Z,14.11
2018-04-13T10:32:54.759Z,14.04
2018-04-13T10:33:54.753Z,14.07
2018-04-13T10:34:54.945Z,14.10
2018-04-13T10:35:54.740Z,14.10
2018-04-13T10:36:54.741Z,14.11
2018-04-13T10:37:54.738Z,14.15
2018-04-13T10:38:54.936Z,14.15
2018-04-13T10:39:54.946Z,14.14
2018-04-13T10:40:54.932Z,14.25
2018-04-13T10:41:54.932Z,14.14
2018-04-13T10:42:54.952Z,14.22
2018-04-13T10:43:54.734Z,14.25
2018-04-13T10:44:54.731Z,14.25
2018-04-13T10:45:54.923Z,14.25
2018-04-13T10:46:54.731Z,14.22
2018-04-13T10:47:54.723Z,14.22
2018-04-13T10:48:54.712Z,14.28
2018-04-13T10:49:54.711Z,14.22
2018-04-13T10:50:54.712Z,14.20
2018-04-13T10:51:54.921Z,14.20
2018-04-13T10:52:54.906Z,14.20
2018-04-13T10:53:54.906Z,14.15
2018-04-13T10:54:54.906Z,14.23
2018-04-13T10:55:54.709Z,14.14
2018-04-13T10:56:54.698Z,14.17
2018-04-13T10:57:54.912Z,14.26
2018-04-13T10:58:54.706Z,14.22
2018-04-13T10:59:54.691Z,14.20
2018-04-13T11:00:54.689Z,14.22
2018-04-13T11:01:54.686Z,14.23
2018-04-13T11:02:54.711Z,14.18
2018-04-13T11:03:54.889Z,14.29
2018-04-13T11:04:54.694Z,14.23
2018-04-13T11:05:54.691Z,14.18
2018-04-13T11:06:54.892Z,14.23
2018-04-13T11:07:54.679Z,14.25
2018-04-13T11:08:54.886Z,14.23
2018-04-13T11:09:54.671Z,14.25
2018-04-13T11:10:54.668Z,14.35
2018-04-13T11:11:54.682Z,14.37
2018-04-13T11:12:54.676Z,14.33
2018-04-13T11:13:54.665Z,14.36
2018-04-13T11:14:54.663Z,14.28
2018-04-13T11:15:54.675Z,14.36
2018-04-13T11:16:54.714Z,14.30
2018-04-13T11:17:54.665Z,14.32
2018-04-13T11:18:54.650Z,14.48
2018-04-13T11:19:54.863Z,14.41
2018-04-13T11:20:54.649Z,14.35
2018-04-13T11:21:54.663Z,14.40
2018-04-13T11:22:54.666Z,14.50
2018-04-13T11:23:54.642Z,14.37
2018-04-13T11:24:54.653Z,14.33
2018-04-13T11:25:54.637Z,14.32
2018-04-13T11:26:54.644Z,14.43
2018-04-13T11:27:54.633Z,14.35
2018-04-13T11:28:54.629Z,14.43
2018-04-13T11:29:54.831Z,14.36
2018-04-13T11:30:54.839Z,14.32
2018-04-13T11:31:54.627Z,14.33
2018-04-13T11:32:54.636Z,14.40
2018-04-13T11:33:54.834Z,14.35
2018-04-13T11:34:54.627Z,14.32
2018-04-13T11:35:54.616Z,14.32
2018-04-13T11:36:54.615Z,14.30
2018-04-13T11:37:54.624Z,14.45
2018-04-13T11:38:54.609Z,14.41
2018-04-13T11:39:54.618Z,14.43
2018-04-13T11:40:54.819Z,14.45
2018-04-13T11:41:54.604Z,14.48
2018-04-13T11:42:54.611Z,14.48
2018-04-13T11:43:54.802Z,14.54
2018-04-13T11:44:54.598Z,14.62
2018-04-13T11:45:54.607Z,14.69
2018-04-13T11:46:54.617Z,14.65
2018-04-13T11:47:54.592Z,14.73
2018-04-13T11:48:54.617Z,14.79
2018-04-13T11:49:54.802Z,14.77
2018-04-13T11:50:54.604Z,14.92
2018-04-13T11:51:54.799Z,14.88
2018-04-13T11:52:54.583Z,15.03
2018-04-13T11:53:54.582Z,15.02
2018-04-13T11:54:54.606Z,15.04
2018-04-13T11:55:54.577Z,15.11
2018-04-13T11:56:54.591Z,15.09
2018-04-13T11:57:54.587Z,15.03
2018-04-13T11:58:54.584Z,15.19
2018-04-13T11:59:54.570Z,15.14
2018-04-13T12:00:54.571Z,15.22
2018-04-13T12:01:54.579Z,15.27
2018-04-13T12:02:54.566Z,15.25
2018-04-13T12:03:54.766Z,15.27
2018-04-13T12:04:54.572Z,15.33
2018-04-13T12:05:54.773Z,15.40
2018-04-13T12:06:54.569Z,15.37
2018-04-13T12:07:54.557Z,15.43
2018-04-13T12:08:54.553Z,15.47
2018-04-13T12:09:54.552Z,15.57
2018-04-13T12:10:54.563Z,15.57
2018-04-13T12:11:54.783Z,15.44
2018-04-13T12:12:54.547Z,15.61
2018-04-13T12:13:54.546Z,15.64
2018-04-13T12:14:54.557Z,15.59
2018-04-13T12:15:54.554Z,15.57
2018-04-13T12:16:54.568Z,15.75
2018-04-13T12:17:54.553Z,15.62
2018-04-13T12:18:54.539Z,15.68
2018-04-13T12:19:54.548Z,15.62
2018-04-13T12:20:54.540Z,15.59
2018-04-13T12:21:54.536Z,15.52
2018-04-13T12:22:54.537Z,15.52
2018-04-13T12:23:54.536Z,15.46
2018-04-13T12:24:54.541Z,15.57
2018-04-13T12:25:54.530Z,15.57
2018-04-13T12:26:54.533Z,15.43
2018-04-13T12:27:54.537Z,15.44
2018-04-13T12:28:54.553Z,15.31
2018-04-13T12:29:54.538Z,15.36
2018-04-13T12:30:54.546Z,15.33
2018-04-13T12:31:54.522Z,15.31
2018-04-13T12:32:54.521Z,15.27
2018-04-13T12:33:54.527Z,15.31
2018-04-13T12:34:54.541Z,15.35
2018-04-13T12:35:54.519Z,15.33
2018-04-13T12:36:54.526Z,15.33
2018-04-13T12:37:54.540Z,15.33
2018-04-13T12:38:54.539Z,15.39
2018-04-13T12:39:54.511Z,15.40
2018-04-13T12:40:54.521Z,15.29
2018-04-13T12:41:54.516Z,15.27
2018-04-13T12:42:54.504Z,15.28
2018-04-13T12:43:54.502Z,15.21
2018-04-13T12:44:54.513Z,15.27
2018-04-13T12:45:54.512Z,15.18
2018-04-13T12:46:54.502Z,15.25
2018-04-13T12:47:54.521Z,15.24
2018-04-13T12:48:54.503Z,15.29
2018-04-13T12:49:54.507Z,15.25
2018-04-13T12:50:54.506Z,15.31
2018-04-13T12:51:54.499Z,15.39
2018-04-13T12:52:54.502Z,15.37
2018-04-13T12:53:54.500Z,15.36
2018-04-13T12:54:54.739Z,15.43
2018-04-13T12:55:54.542Z,15.40
2018-04-13T12:56:54.496Z,15.37
2018-04-13T12:57:54.481Z,15.44
2018-04-13T12:58:54.587Z,15.46
2018-04-13T12:59:54.481Z,15.61
2018-04-13T13:00:54.476Z,15.52
2018-04-13T13:01:54.476Z,15.61
2018-04-13T13:02:54.489Z,15.59
2018-04-13T13:03:54.475Z,15.62
2018-04-13T13:04:54.486Z,15.57
2018-04-13T13:05:54.469Z,15.68